Time;durP1;ratioP1;P1;durP2;ratioP2;P2;SDS_P1;SDS_P2;PMS_P1;PMS_P2;Temp;Humidity;BMP_temperature;BMP_pressure;BME280_temperature;BME280_humidity;BME280_pressure;Samples;Min_cycle;Max_cycle;Signal;HPM_P1;HPM_P2
2023/10/31 00:00:15;;;;;;;5.85;3.10;;;;;;;18.32;69.06;98748.19;6213944;23;20014;-76
2023/10/31 00:02:41;;;;;;;7.97;3.08;;;;;;;18.31;68.94;98753.56;6215431;23;20000;-75
2023/10/31 00:05:06;;;;;;;5.70;2.90;;;;;;;18.31;68.81;98756.19;6215162;23;20388;-75
2023/10/31 00:07:32;;;;;;;5.15;2.88;;;;;;;18.30;68.85;98752.69;6215564;23;20043;-74
2023/10/31 00:09:57;;;;;;;8.15;3.15;;;;;;;18.31;69.02;98750.91;6189061;23;20024;-73
2023/10/31 00:12:23;;;;;;;8.20;2.92;;;;;;;18.28;69.33;98730.81;6215833;23;20012;-74
2023/10/31 00:14:48;;;;;;;7.93;2.80;;;;;;;18.27;68.79;98723.84;6215537;23;20511;-74
2023/10/31 00:17:14;;;;;;;7.03;2.80;;;;;;;18.24;69.01;98706.41;6215208;23;20480;-74
2023/10/31 00:19:39;;;;;;;7.22;3.33;;;;;;;18.22;68.90;98710.91;6215599;23;20013;-74
2023/10/31 00:22:05;;;;;;;6.45;2.88;;;;;;;18.22;69.03;98710.06;6188831;23;20011;-74
2023/10/31 00:24:32;;;;;;;6.22;2.95;;;;;;;18.20;68.94;98712.81;6215480;23;20504;-74
2023/10/31 00:26:57;;;;;;;5.63;2.67;;;;;;;18.21;69.05;98714.50;6215506;23;20473;-75
2023/10/31 00:29:23;;;;;;;6.55;2.78;;;;;;;18.20;68.88;98718.09;6215585;23;20000;-74
2023/10/31 00:31:48;;;;;;;6.22;3.10;;;;;;;18.21;69.16;98719.78;6215393;23;20126;-74
2023/10/31 00:34:14;;;;;;;8.60;3.22;;;;;;;18.16;68.82;98710.44;6188741;23;20512;-74
2023/10/31 00:36:39;;;;;;;9.10;2.90;;;;;;;18.16;68.85;98711.28;6215491;23;20099;-74
2023/10/31 00:39:05;;;;;;;4.82;2.58;;;;;;;18.17;69.28;98714.78;6215425;23;20451;-74
2023/10/31 00:41:30;;;;;;;5.03;2.38;;;;;;;18.17;69.08;98701.59;6215558;23;20039;-74
2023/10/31 00:43:56;;;;;;;6.85;2.78;;;;;;;18.17;69.05;98717.41;6214975;23;20000;-74
2023/10/31 00:46:21;;;;;;;5.20;2.38;;;;;;;18.16;68.94;98721.00;6215283;23;20005;-74
2023/10/31 00:48:46;;;;;;;6.75;2.90;;;;;;;18.17;69.16;98714.78;6215243;23;20012;-75
2023/10/31 00:51:12;;;;;;;6.85;2.22;;;;;;;18.19;69.58;98718.16;6215552;23;20000;-74
2023/10/31 00:53:37;;;;;;;9.18;2.90;;;;;;;18.22;69.61;98733.84;6214754;23;20413;-75
2023/10/31 00:56:03;;;;;;;8.27;2.90;;;;;;;18.25;70.12;98737.13;6215579;23;20009;-74
2023/10/31 00:58:29;;;;;;;5.03;2.45;;;;;;;18.25;70.19;98737.13;6214767;23;20016;-74
2023/10/31 01:00:54;;;;;;;6.28;2.63;;;;;;;18.23;69.40;98744.31;6215433;23;20084;-74
2023/10/31 01:03:19;;;;;;;6.65;2.47;;;;;;;18.27;70.47;98749.41;6215323;23;20035;-74
2023/10/31 01:05:45;;;;;;;8.20;2.92;;;;;;;18.25;69.86;98774.09;6215414;23;20001;-74
2023/10/31 01:08:10;;;;;;;6.53;2.75;;;;;;;18.22;69.33;98779.56;6214755;23;20009;-74
2023/10/31 01:10:36;;;;;;;5.32;2.63;;;;;;;18.20;69.20;98781.47;6215022;23;20005;-74
2023/10/31 01:13:01;;;;;;;5.47;2.60;;;;;;;18.22;69.66;98784.84;6188058;23;20036;-74
2023/10/31 01:15:26;;;;;;;5.72;2.60;;;;;;;18.23;70.14;98785.72;6215447;23;20000;-74
2023/10/31 01:17:52;;;;;;;5.45;2.55;;;;;;;18.20;69.70;98786.75;6215117;23;20032;-74
2023/10/31 01:20:17;;;;;;;5.30;2.45;;;;;;;18.18;69.24;98783.34;6214862;23;20005;-75
2023/10/31 01:22:42;;;;;;;5.35;2.50;;;;;;;18.21;69.87;98785.78;6215307;23;20010;-74
2023/10/31 01:25:08;;;;;;;4.50;2.20;;;;;;;18.19;69.18;98787.69;6215021;23;20004;-74
2023/10/31 01:27:33;;;;;;;6.05;2.85;;;;;;;18.20;70.05;98786.75;6214693;23;20007;-75
2023/10/31 01:29:59;;;;;;;5.25;2.35;;;;;;;18.21;69.98;98788.44;6215088;23;20011;-74
2023/10/31 01:32:24;;;;;;;6.85;2.40;;;;;;;18.20;69.80;98792.03;6215216;23;20011;-74
2023/10/31 01:34:49;;;;;;;5.80;2.30;;;;;;;18.20;69.76;98792.03;6215125;23;20055;-74
2023/10/31 01:37:15;;;;;;;5.95;2.58;;;;;;;18.21;69.52;98787.59;6214462;23;20019;-74
2023/10/31 01:39:40;;;;;;;4.57;2.33;;;;;;;18.22;69.86;98789.28;6215290;23;20001;-75
2023/10/31 01:42:06;;;;;;;5.18;2.20;;;;;;;18.22;70.28;98795.41;6214499;23;20387;-74
2023/10/31 01:44:31;;;;;;;7.20;2.35;;;;;;;18.20;69.38;98788.50;6214778;23;20020;-74
2023/10/31 01:46:57;;;;;;;5.55;2.65;;;;;;;18.19;69.70;98795.59;6214681;23;20012;-74
2023/10/31 01:49:23;;;;;;;6.57;2.10;;;;;;;18.20;69.70;98792.03;6214490;23;20067;-75
2023/10/31 01:51:49;;;;;;;5.50;2.08;;;;;;;18.21;70.26;98791.06;6214663;23;20001;-74
2023/10/31 01:54:14;;;;;;;5.28;2.40;;;;;;;18.17;69.97;98786.94;6214786;23;20076;-75
2023/10/31 01:56:41;;;;;;;5.78;2.03;;;;;;;18.20;69.82;98788.50;6214454;23;20046;-75
2023/10/31 01:59:07;;;;;;;7.35;1.88;;;;;;;18.17;70.20;98786.06;6214673;23;20004;-75
2023/10/31 02:01:39;;;;;;;3.42;2.00;;;;;;;18.17;70.06;98792.22;6214901;23;20039;-75
2023/10/31 02:04:05;;;;;;;6.20;2.20;;;;;;;18.16;69.37;98794.94;6188122;23;20447;-75
2023/10/31 02:06:30;;;;;;;5.15;2.10;;;;;;;18.18;69.79;98808.91;6214674;23;20008;-74
2023/10/31 02:08:56;;;;;;;4.60;1.98;;;;;;;18.17;70.19;98807.19;6214561;23;20028;-75
2023/10/31 02:11:22;;;;;;;4.85;2.10;;;;;;;18.18;69.83;98809.75;6214287;23;20008;-75
2023/10/31 02:13:47;;;;;;;3.75;2.15;;;;;;;18.18;70.00;98800.97;6187691;23;20008;-74
2023/10/31 02:16:12;;;;;;;3.55;2.03;;;;;;;18.17;69.80;98800.16;6214720;23;20009;-74
2023/10/31 02:18:38;;;;;;;4.68;2.30;;;;;;;18.14;69.54;98800.31;6187973;23;20324;-75
2023/10/31 02:21:03;;;;;;;5.10;2.08;;;;;;;18.14;69.79;98802.94;6214467;23;20027;-74
2023/10/31 02:23:29;;;;;;;4.30;2.08;;;;;;;18.14;69.22;98802.94;6214664;23;20331;-75
2023/10/31 02:25:54;;;;;;;3.05;1.67;;;;;;;18.12;69.05;98799.56;6213846;23;20427;-75
2023/10/31 02:28:20;;;;;;;4.50;1.88;;;;;;;18.12;69.56;98804.84;6214584;23;20012;-75
2023/10/31 02:30:45;;;;;;;4.68;2.10;;;;;;;18.14;70.20;98804.72;6214644;23;20000;-75
2023/10/31 02:33:10;;;;;;;4.45;1.88;;;;;;;18.12;69.12;98799.56;6214254;23;20004;-75
2023/10/31 02:35:36;;;;;;;4.50;2.00;;;;;;;18.14;69.59;98802.94;6214343;23;20009;-75
2023/10/31 02:38:01;;;;;;;3.13;1.98;;;;;;;18.14;69.92;98796.81;6214558;23;20070;-74
2023/10/31 02:40:27;;;;;;;2.67;1.50;;;;;;;18.12;69.49;98804.84;6214158;23;20004;-74
2023/10/31 02:42:52;;;;;;;3.92;1.75;;;;;;;18.11;69.33;98801.34;6214251;23;20397;-74
2023/10/31 02:45:18;;;;;;;4.85;1.90;;;;;;;18.12;70.05;98804.84;6214227;23;20402;-74
2023/10/31 02:47:43;;;;;;;3.88;1.77;;;;;;;18.11;69.34;98808.41;6214075;23;20080;-74
2023/10/31 02:50:09;;;;;;;3.95;2.00;;;;;;;18.11;69.48;98803.13;6214372;23;20039;-74
2023/10/31 02:52:34;;;;;;;3.33;1.88;;;;;;;18.10;69.91;98807.56;6213799;23;20020;-74
2023/10/31 02:55:00;;;;;;;4.60;2.10;;;;;;;18.11;69.94;98808.41;6213670;23;20012;-74
2023/10/31 02:57:25;;;;;;;5.97;1.80;;;;;;;18.11;69.55;98808.41;6213884;23;20084;-74
2023/10/31 02:59:51;;;;;;;2.90;1.63;;;;;;;18.08;69.44;98798.03;6214054;23;20016;-74
2023/10/31 03:02:16;;;;;;;3.58;1.70;;;;;;;18.06;69.03;98805.22;6213972;23;20080;-74
2023/10/31 03:04:42;;;;;;;4.18;1.90;;;;;;;18.07;69.50;98801.63;6214249;23;20001;-75
2023/10/31 03:07:07;;;;;;;3.58;1.80;;;;;;;18.06;69.18;98802.56;6213608;23;20005;-75
2023/10/31 03:09:32;;;;;;;4.20;1.75;;;;;;;18.05;69.47;98796.41;6213718;23;20032;-74
2023/10/31 03:11:58;;;;;;;3.05;1.40;;;;;;;18.06;69.31;98794.66;6213994;23;20027;-74
2023/10/31 03:14:23;;;;;;;3.78;1.88;;;;;;;18.06;69.49;98794.66;6214262;23;20007;-75
2023/10/31 03:16:48;;;;;;;4.20;1.70;;;;;;;18.04;68.92;98797.34;6213656;23;20040;-75
2023/10/31 03:19:14;;;;;;;3.28;1.80;;;;;;;18.05;69.75;98793.75;6213966;23;20005;-74
2023/10/31 03:21:39;;;;;;;3.45;1.67;;;;;;;18.06;70.15;98800.75;6213842;23;20056;-74
2023/10/31 03:24:05;;;;;;;4.47;1.70;;;;;;;18.02;69.22;98803.66;6213866;23;20013;-75
2023/10/31 03:26:30;;;;;;;4.32;1.70;;;;;;;18.02;69.44;98801.00;6213768;23;20342;-75
2023/10/31 03:28:57;;;;;;;2.80;1.48;;;;;;;18.01;69.23;98807.22;6213999;23;20370;-74
2023/10/31 03:31:23;;;;;;;5.05;1.73;;;;;;;18.03;69.49;98806.22;6187257;23;20066;-74
2023/10/31 03:33:49;;;;;;;3.35;1.52;;;;;;;18.02;69.34;98798.38;6214221;23;20000;-74
2023/10/31 03:36:14;;;;;;;3.92;1.70;;;;;;;18.02;70.00;98798.38;6213908;23;20058;-75
2023/10/31 03:38:40;;;;;;;4.32;1.60;;;;;;;18.00;69.06;98806.38;6213690;23;20312;-74
2023/10/31 03:41:05;;;;;;;3.85;1.48;;;;;;;17.99;69.43;98804.69;6213912;23;20411;-74
2023/10/31 03:43:31;;;;;;;2.17;1.30;;;;;;;18.01;69.25;98812.50;6213671;23;20000;-74
2023/10/31 03:45:56;;;;;;;3.17;1.83;;;;;;;17.98;68.87;98814.38;6214312;23;20083;-74
2023/10/31 03:48:22;;;;;;;2.90;1.50;;;;;;;17.97;68.96;98817.97;6213321;23;20016;-74
2023/10/31 03:50:47;;;;;;;3.08;1.55;;;;;;;17.98;69.04;98827.56;6213817;23;20032;-74
2023/10/31 03:53:13;;;;;;;3.97;1.90;;;;;;;18.00;69.14;98826.66;6212960;23;20457;-75
2023/10/31 03:55:38;;;;;;;4.63;1.85;;;;;;;17.97;69.37;98823.25;6213919;23;20034;-74
2023/10/31 03:58:04;;;;;;;3.25;1.52;;;;;;;17.97;69.18;98817.97;6187211;23;20008;-75
2023/10/31 04:00:29;;;;;;;3.40;1.77;;;;;;;17.97;69.05;98823.25;6213853;23;20007;-74
2023/10/31 04:02:55;;;;;;;3.13;1.50;;;;;;;17.96;69.17;98824.19;6213949;23;20013;-74
2023/10/31 04:05:21;;;;;;;2.92;1.70;;;;;;;17.95;69.29;98830.41;6214137;23;20028;-74
2023/10/31 04:07:46;;;;;;;3.22;1.60;;;;;;;17.98;69.17;98834.66;6213362;23;20004;-75
2023/10/31 04:10:12;;;;;;;4.13;1.65;;;;;;;17.96;69.12;98836.53;6187182;23;20004;-75
2023/10/31 04:12:38;;;;;;;2.53;1.33;;;;;;;17.97;69.34;98833.78;6213869;23;20000;-74
2023/10/31 04:15:04;;;;;;;3.10;1.42;;;;;;;17.97;69.70;98833.78;6213562;23;20055;-74
2023/10/31 04:17:29;;;;;;;4.53;1.75;;;;;;;17.96;69.53;98832.09;6213613;23;20008;-75
2023/10/31 04:19:55;;;;;;;2.58;1.50;;;;;;;17.93;69.04;98832.25;6214147;23;19997;-75
2023/10/31 04:22:20;;;;;;;3.30;1.55;;;;;;;17.92;69.02;98835.84;6213064;23;20024;-74
2023/10/31 04:24:46;;;;;;;2.70;1.52;;;;;;;17.91;69.08;98836.78;6187048;23;20088;-75
2023/10/31 04:27:11;;;;;;;2.85;1.40;;;;;;;17.91;69.16;98838.59;6213521;23;20442;-74
2023/10/31 04:29:37;;;;;;;2.45;1.52;;;;;;;17.89;68.96;98849.25;6215570;23;20077;-75
2023/10/31 04:32:02;;;;;;;3.60;1.40;;;;;;;17.91;68.74;98843.88;6215886;23;20005;-75
2023/10/31 04:34:28;;;;;;;4.22;1.63;;;;;;;17.91;69.29;98844.72;6215599;23;20327;-75
2023/10/31 04:36:53;;;;;;;2.78;1.48;;;;;;;17.91;69.23;98849.16;6214859;23;20009;-74
2023/10/31 04:39:19;;;;;;;2.85;1.23;;;;;;;17.92;69.59;98851.69;6215863;23;20024;-76
2023/10/31 04:41:44;;;;;;;2.53;1.23;;;;;;;17.90;69.07;98852.72;6215414;23;20004;-75
2023/10/31 04:44:09;;;;;;;2.50;1.63;;;;;;;17.90;69.56;98858.84;6215848;23;20001;-74
2023/10/31 04:46:35;;;;;;;3.90;1.58;;;;;;;17.90;68.75;98873.81;6215233;23;20076;-75
2023/10/31 04:49:00;;;;;;;2.10;1.10;;;;;;;17.90;68.89;98879.97;6215092;23;20016;-75
2023/10/31 04:51:26;;;;;;;2.50;1.20;;;;;;;17.91;69.62;98886.94;6214897;23;20004;-74
2023/10/31 04:53:51;;;;;;;3.33;1.30;;;;;;;17.91;69.07;98881.66;6215272;23;20064;-75
2023/10/31 04:56:17;;;;;;;3.67;1.35;;;;;;;17.89;69.17;98867.72;6215228;23;20058;-75
2023/10/31 04:58:44;;;;;;;3.25;1.50;;;;;;;17.91;69.26;98865.81;6215937;23;20013;-74
2023/10/31 05:01:13;;;;;;;2.58;1.17;;;;;;;17.87;68.73;98880.13;6215327;23;20311;-75
2023/10/31 05:03:39;;;;;;;2.70;1.40;;;;;;;17.83;68.79;98883.91;6215378;23;20102;-74
2023/10/31 05:06:05;;;;;;;3.05;1.33;;;;;;;17.83;69.00;98890.00;6215098;23;20453;-74
2023/10/31 05:08:32;;;;;;;2.33;1.23;;;;;;;17.84;69.54;98890.88;6215096;23;20438;-74
2023/10/31 05:10:58;;;;;;;2.53;1.20;;;;;;;17.80;69.44;98889.34;6215218;23;20528;-75
2023/10/31 05:13:24;;;;;;;2.17;1.13;;;;;;;17.81;69.18;98891.03;6215206;23;19996;-74
2023/10/31 05:15:50;;;;;;;2.50;1.02;;;;;;;17.81;69.14;98896.31;6215003;23;20009;-75
2023/10/31 05:18:15;;;;;;;3.65;1.40;;;;;;;17.78;68.60;98896.50;6215283;23;20008;-74
2023/10/31 05:20:41;;;;;;;2.20;1.20;;;;;;;17.79;68.99;98904.34;6214913;23;20056;-74
2023/10/31 05:23:07;;;;;;;3.38;1.27;;;;;;;17.76;68.53;98898.38;6215384;23;20005;-75
2023/10/31 05:25:32;;;;;;;2.58;1.10;;;;;;;17.80;69.31;98899.91;6215299;23;20008;-75
2023/10/31 05:27:58;;;;;;;3.55;1.35;;;;;;;17.76;68.40;98893.94;6215206;23;20386;-74
2023/10/31 05:30:23;;;;;;;3.72;1.17;;;;;;;17.75;69.05;98901.94;6215055;23;20005;-75
2023/10/31 05:32:49;;;;;;;2.47;1.17;;;;;;;17.75;68.56;98912.50;6215011;23;20004;-75
2023/10/31 05:35:15;;;;;;;2.22;1.25;;;;;;;17.74;69.06;98900.25;6214792;23;20024;-75
2023/10/31 05:37:40;;;;;;;1.83;1.20;;;;;;;17.70;68.27;98904.84;6214822;23;20427;-75
2023/10/31 05:40:06;;;;;;;2.15;0.90;;;;;;;17.71;68.44;98912.69;6214683;23;20062;-74
2023/10/31 05:42:31;;;;;;;1.90;0.90;;;;;;;17.75;68.38;98917.78;6214955;23;20012;-75
2023/10/31 05:44:57;;;;;;;1.90;1.00;;;;;;;17.70;68.25;98921.53;6214859;23;20004;-75
2023/10/31 05:47:22;;;;;;;3.00;1.25;;;;;;;17.69;68.64;98925.09;6214988;23;20021;-75
2023/10/31 05:49:48;;;;;;;4.32;1.30;;;;;;;17.66;68.28;98927.06;6214526;23;20000;-74
2023/10/31 05:52:13;;;;;;;2.20;1.13;;;;;;;17.66;68.14;98930.56;6212525;23;20001;-74
2023/10/31 05:54:39;;;;;;;3.03;1.17;;;;;;;17.68;68.52;98927.84;6214897;23;20012;-74
2023/10/31 05:57:04;;;;;;;3.70;1.50;;;;;;;17.68;68.41;98933.13;6214694;23;20031;-75
2023/10/31 05:59:30;;;;;;;2.65;1.33;;;;;;;17.66;68.38;98938.47;6214726;23;20001;-74
2023/10/31 06:01:56;;;;;;;2.42;1.10;;;;;;;17.65;68.17;98936.78;6214782;23;20020;-74
2023/10/31 06:04:22;;;;;;;1.70;0.90;;;;;;;17.66;68.17;98941.13;6214578;23;20004;-74
2023/10/31 06:06:47;;;;;;;2.50;1.15;;;;;;;17.64;68.07;98947.41;6215104;23;20485;-74
2023/10/31 06:09:14;;;;;;;2.08;1.13;;;;;;;17.64;68.12;98945.63;6214429;23;20427;-74
2023/10/31 06:11:42;;;;;;;3.22;1.30;;;;;;;17.69;68.60;98954.13;6214858;23;20009;-75
2023/10/31 06:14:08;;;;;;;3.67;1.30;;;;;;;17.65;67.83;98949.97;6215121;23;20000;-74
2023/10/31 06:16:33;;;;;;;2.05;1.10;;;;;;;17.65;68.62;98954.38;6214903;23;20009;-74
2023/10/31 06:18:58;;;;;;;1.30;0.80;;;;;;;17.64;68.15;98964.09;6214408;23;20343;-75
2023/10/31 06:21:24;;;;;;;2.92;1.20;;;;;;;17.61;67.36;98969.53;6214804;23;20055;-75
2023/10/31 06:23:50;;;;;;;2.25;1.30;;;;;;;17.61;67.93;98974.81;6187810;23;20391;-74
2023/10/31 06:26:15;;;;;;;2.10;1.10;;;;;;;17.61;68.40;98973.94;6188012;23;20381;-74
2023/10/31 06:28:41;;;;;;;2.50;0.98;;;;;;;17.61;67.75;98971.31;6214673;23;20058;-75
2023/10/31 06:31:06;;;;;;;2.47;0.95;;;;;;;17.62;67.70;98976.50;6214361;23;20000;-75
2023/10/31 06:33:31;;;;;;;2.42;0.95;;;;;;;17.61;67.92;98980.09;6214301;23;20005;-74
2023/10/31 06:35:57;;;;;;;2.60;1.30;;;;;;;17.61;67.55;98988.00;6214375;23;20008;-74
2023/10/31 06:38:22;;;;;;;2.17;0.90;;;;;;;17.61;68.01;98990.66;6214428;23;20050;-74
2023/10/31 06:40:47;;;;;;;1.20;0.75;;;;;;;17.61;67.68;98990.66;6214592;23;20597;-75
2023/10/31 06:43:13;;;;;;;2.88;1.33;;;;;;;17.63;67.69;99004.59;6214306;23;20071;-75
2023/10/31 06:45:38;;;;;;;2.05;1.10;;;;;;;17.62;68.02;99000.25;6214514;23;20004;-74
2023/10/31 06:48:05;;;;;;;1.58;1.00;;;;;;;17.63;68.05;99009.88;6213799;23;20087;-75
2023/10/31 06:50:32;;;;;;;1.42;0.80;;;;;;;17.61;68.03;99001.19;6214234;23;20005;-75
2023/10/31 06:52:58;;;;;;;2.05;1.00;;;;;;;17.62;67.72;99013.44;6187472;23;20438;-75
2023/10/31 06:55:23;;;;;;;2.20;0.93;;;;;;;17.61;67.97;99022.31;6214457;23;20086;-75
2023/10/31 06:57:49;;;;;;;2.15;1.10;;;;;;;17.60;67.82;99020.59;6214216;23;20008;-76
2023/10/31 07:00:14;;;;;;;1.58;1.00;;;;;;;17.61;67.80;99021.44;6214567;23;20008;-74
2023/10/31 07:02:40;;;;;;;1.92;0.90;;;;;;;17.60;68.22;99036.44;6213971;23;20027;-74
2023/10/31 07:05:05;;;;;;;2.15;0.93;;;;;;;17.62;68.15;99031.91;6213956;23;20027;-75
2023/10/31 07:07:31;;;;;;;1.75;0.90;;;;;;;17.60;67.61;99039.06;6214031;23;20454;-74
2023/10/31 07:09:56;;;;;;;2.03;1.00;;;;;;;17.60;67.41;99041.72;6214335;23;20069;-74
2023/10/31 07:12:22;;;;;;;3.13;1.17;;;;;;;17.60;67.55;99046.13;6214360;23;20028;-74
2023/10/31 07:14:47;;;;;;;2.50;1.05;;;;;;;17.58;67.78;99054.13;6213957;23;20047;-75
2023/10/31 07:17:13;;;;;;;2.70;1.20;;;;;;;17.60;67.52;99061.94;6213555;23;20009;-75
2023/10/31 07:19:38;;;;;;;2.10;0.90;;;;;;;17.57;67.51;99062.97;6214149;23;20004;-74
2023/10/31 07:22:03;;;;;;;2.30;0.80;;;;;;;17.57;67.37;99073.50;6214046;23;20423;-75
2023/10/31 07:24:29;;;;;;;2.15;1.10;;;;;;;17.59;67.87;99071.66;6214072;23;20027;-75
2023/10/31 07:26:55;;;;;;;1.50;0.88;;;;;;;17.59;67.58;99066.41;6213956;23;20005;-74
2023/10/31 07:29:20;;;;;;;2.33;0.93;;;;;;;17.59;68.06;99074.31;6214322;23;20009;-75
2023/10/31 07:31:45;;;;;;;1.67;1.00;;;;;;;17.58;67.69;99064.69;6213626;23;20005;-75
2023/10/31 07:34:12;;;;;;;1.75;0.82;;;;;;;17.58;67.83;99064.69;6213979;23;20011;-75
2023/10/31 07:36:37;;;;;;;2.05;0.90;;;;;;;17.58;68.21;99069.97;6187781;23;20016;-75
2023/10/31 07:39:03;;;;;;;1.80;0.93;;;;;;;17.56;67.53;99070.03;6213105;23;20005;-75
2023/10/31 07:41:29;;;;;;;1.58;0.80;;;;;;;17.55;67.42;99075.41;6213372;23;20001;-75
2023/10/31 07:43:55;;;;;;;3.40;0.85;;;;;;;17.57;67.96;99081.44;6213119;23;20011;-75
2023/10/31 07:46:20;;;;;;;2.53;1.05;;;;;;;17.56;67.86;99087.66;6213730;23;20011;-75
2023/10/31 07:48:46;;;;;;;2.35;0.95;;;;;;;17.58;68.05;99083.16;6213656;23;20091;-75
2023/10/31 07:51:11;;;;;;;1.52;0.93;;;;;;;17.60;68.16;99093.59;6213612;23;20075;-75
2023/10/31 07:53:36;;;;;;;1.70;0.93;;;;;;;17.57;67.54;99094.63;6214012;23;19996;-75
2023/10/31 07:56:02;;;;;;;2.13;1.08;;;;;;;17.60;67.48;99098.88;6213865;23;20016;-75
2023/10/31 07:58:27;;;;;;;2.80;0.98;;;;;;;17.59;67.65;99103.34;6213400;23;20005;-75
2023/10/31 08:00:53;;;;;;;2.67;1.00;;;;;;;17.60;68.39;99105.03;6186793;23;20012;-77
2023/10/31 08:03:18;;;;;;;3.28;1.10;;;;;;;17.63;68.30;99104.84;6214535;23;20008;-74
2023/10/31 08:05:43;;;;;;;1.30;0.80;;;;;;;17.63;68.15;99110.13;6189285;23;20015;-75
2023/10/31 08:08:09;;;;;;;2.10;0.90;;;;;;;17.63;67.94;99104.84;6189059;23;20450;-75
2023/10/31 08:10:34;;;;;;;2.72;1.23;;;;;;;17.65;68.52;99124.13;6189142;23;20335;-74
2023/10/31 08:13:00;;;;;;;1.95;0.70;;;;;;;17.65;68.00;99123.25;6214947;23;20059;-74
2023/10/31 08:15:25;;;;;;;2.10;0.88;;;;;;;17.62;67.73;99124.25;6188984;23;20009;-74
2023/10/31 08:17:51;;;;;;;4.60;1.33;;;;;;;17.64;68.22;99122.41;6189115;23;20349;-75
2023/10/31 08:20:16;;;;;;;1.33;0.90;;;;;;;17.62;67.50;99131.34;6215848;23;20005;-75
2023/10/31 08:22:42;;;;;;;2.42;1.20;;;;;;;17.61;67.72;99138.41;6215632;23;20000;-74
2023/10/31 08:25:08;;;;;;;2.30;1.00;;;;;;;17.61;68.11;99140.16;6215448;23;20001;-75
2023/10/31 08:27:34;;;;;;;3.88;1.17;;;;;;;17.58;67.57;99142.03;6215365;23;20040;-74
2023/10/31 08:29:59;;;;;;;2.83;1.27;;;;;;;17.61;67.81;99148.94;6215093;23;20008;-74
2023/10/31 08:32:25;;;;;;;1.45;0.80;;;;;;;17.64;67.29;99158.50;6216026;23;20024;-74
2023/10/31 08:34:50;;;;;;;1.95;0.80;;;;;;;17.64;68.29;99158.50;6215767;23;20395;-75
2023/10/31 08:37:16;;;;;;;2.25;1.10;;;;;;;17.65;67.96;99154.91;6215299;23;20087;-75
2023/10/31 08:39:42;;;;;;;3.28;1.20;;;;;;;17.66;67.81;99161.88;6215185;23;20011;-75
2023/10/31 08:42:08;;;;;;;3.55;1.13;;;;;;;17.67;68.06;99164.47;6215479;23;20000;-75
2023/10/31 08:44:33;;;;;;;2.10;0.95;;;;;;;17.69;67.95;99162.59;6215492;23;20043;-74
2023/10/31 08:46:59;;;;;;;2.55;1.23;;;;;;;17.70;68.39;99164.31;6215712;23;20068;-74
2023/10/31 08:49:24;;;;;;;2.15;0.90;;;;;;;17.70;67.71;99161.69;6189149;23;20431;-75
2023/10/31 08:51:50;;;;;;;1.63;0.90;;;;;;;17.71;68.00;99159.88;6215465;23;20001;-74
2023/10/31 08:54:15;;;;;;;3.42;1.15;;;;;;;17.71;67.85;99160.72;6215627;23;20005;-75
2023/10/31 08:56:40;;;;;;;2.67;1.00;;;;;;;17.73;68.01;99154.53;6215251;23;20457;-75
2023/10/31 08:59:06;;;;;;;2.97;1.10;;;;;;;17.73;68.05;99162.44;6215507;23;20035;-74
2023/10/31 09:01:33;;;;;;;3.13;1.08;;;;;;;17.76;68.08;99172.81;6215699;23;20636;-74
2023/10/31 09:03:59;;;;;;;2.40;1.20;;;;;;;17.73;67.94;99168.59;6215850;23;20008;-74
2023/10/31 09:06:25;;;;;;;2.65;1.00;;;;;;;17.75;68.04;99171.13;6215332;23;20005;-75
2023/10/31 09:08:50;;;;;;;3.30;1.08;;;;;;;17.76;67.89;99175.47;6215915;23;20001;-74
2023/10/31 09:11:15;;;;;;;2.83;1.13;;;;;;;17.77;68.07;99175.38;6214907;23;20007;-75
2023/10/31 09:13:41;;;;;;;3.22;1.20;;;;;;;17.77;67.72;99177.19;6214272;23;20084;-75
2023/10/31 09:16:07;;;;;;;3.85;0.80;;;;;;;17.78;67.99;99176.25;6212818;23;20012;-75
2023/10/31 09:18:32;;;;;;;2.50;1.05;;;;;;;17.78;67.98;99176.25;6215072;23;20079;-75
2023/10/31 09:20:58;;;;;;;3.47;1.20;;;;;;;17.79;67.85;99178.81;6215237;23;20008;-75
2023/10/31 09:23:23;;;;;;;2.58;1.13;;;;;;;17.79;67.93;99178.81;6215590;23;20439;-75
2023/10/31 09:25:48;;;;;;;4.05;1.10;;;;;;;17.80;67.67;99182.28;6214663;23;20005;-74
2023/10/31 09:28:14;;;;;;;3.28;1.38;;;;;;;17.81;67.76;99186.63;6214965;23;20027;-74
2023/10/31 09:30:39;;;;;;;3.22;1.15;;;;;;;17.82;67.21;99188.38;6215205;23;20000;-74
2023/10/31 09:33:05;;;;;;;3.67;1.40;;;;;;;17.83;67.46;99182.16;6214848;23;20011;-74
2023/10/31 09:35:30;;;;;;;8.23;2.90;;;;;;;17.84;67.41;99181.22;6213669;23;20055;-75
2023/10/31 09:37:55;;;;;;;7.57;2.17;;;;;;;17.84;67.27;99181.22;6214759;23;20015;-72
2023/10/31 09:40:21;;;;;;;6.10;1.92;;;;;;;17.87;67.50;99182.84;6214776;23;20000;-72
2023/10/31 09:42:49;;;;;;;5.53;2.10;;;;;;;17.85;67.33;99178.50;6215100;23;20427;-72
2023/10/31 09:45:14;;;;;;;4.70;1.40;;;;;;;17.86;67.79;99189.88;6214811;23;20465;-72
2023/10/31 09:47:41;;;;;;;2.63;1.17;;;;;;;17.87;67.46;99185.47;6214384;23;20016;-72
2023/10/31 09:50:09;;;;;;;2.78;1.20;;;;;;;17.87;67.73;99188.94;6188254;23;20028;-73
2023/10/31 09:52:38;;;;;;;4.90;1.58;;;;;;;17.88;67.34;99185.41;6214689;23;20458;-72
2023/10/31 09:55:05;;;;;;;3.15;1.20;;;;;;;17.89;67.83;99179.19;6214174;23;20339;-72
2023/10/31 09:57:30;;;;;;;3.13;1.20;;;;;;;17.88;67.61;99187.19;6215016;23;20004;-72
2023/10/31 09:59:56;;;;;;;2.67;1.23;;;;;;;17.88;67.38;99203.88;6188251;23;20019;-75
2023/10/31 10:02:21;;;;;;;3.65;0.90;;;;;;;17.89;67.68;99200.31;6214943;23;20005;-75
2023/10/31 10:04:50;;;;;;;3.92;1.27;;;;;;;17.90;67.60;99195.84;6214617;23;20004;-72
2023/10/31 10:07:17;;;;;;;2.30;1.10;;;;;;;17.88;67.61;99198.59;6215028;23;20005;-72
2023/10/31 10:09:44;;;;;;;2.05;0.90;;;;;;;17.91;67.71;99190.50;6214339;23;20001;-72
2023/10/31 10:12:12;;;;;;;2.63;0.93;;;;;;;17.91;67.60;99193.13;6214799;23;20059;-72
2023/10/31 10:14:38;;;;;;;3.70;1.13;;;;;;;17.91;67.58;99193.13;6214700;23;20027;-73
2023/10/31 10:17:18;;;;;;;3.10;1.35;;;;;;;17.92;67.70;99184.28;6214497;23;20030;-72
2023/10/31 10:19:43;;;;;;;2.10;1.10;;;;;;;17.92;67.86;99183.44;6214724;23;20004;-72
2023/10/31 10:22:10;;;;;;;3.20;1.15;;;;;;;17.93;67.62;99185.16;6215028;23;20331;-73
2023/10/31 10:24:35;;;;;;;3.58;0.95;;;;;;;17.93;67.94;99178.06;6214139;23;20011;-72
2023/10/31 10:27:01;;;;;;;3.28;1.20;;;;;;;17.92;68.01;99186.09;6214000;23;20004;-71
2023/10/31 10:29:26;;;;;;;3.60;1.40;;;;;;;17.92;67.74;99189.56;6188069;23;20039;-73
2023/10/31 10:31:52;;;;;;;3.70;1.10;;;;;;;17.92;67.80;99186.94;6214642;23;20008;-72
2023/10/31 10:34:17;;;;;;;4.65;1.80;;;;;;;17.92;67.80;99186.94;6214222;23;20005;-72
2023/10/31 10:36:49;;;;;;;2.10;0.98;;;;;;;17.93;67.68;99185.97;6213964;23;20008;-72
2023/10/31 10:39:19;;;;;;;3.25;1.10;;;;;;;17.93;67.65;99191.25;6214219;23;20000;-72
2023/10/31 10:41:46;;;;;;;4.00;1.13;;;;;;;17.95;67.75;99184.13;6213845;23;20079;-72
2023/10/31 10:44:13;;;;;;;4.72;1.23;;;;;;;17.96;67.47;99196.41;6214705;23;20000;-73
2023/10/31 10:46:40;;;;;;;3.83;1.23;;;;;;;17.97;67.59;99192.81;6214502;23;20024;-72
2023/10/31 10:49:07;;;;;;;3.42;1.02;;;;;;;17.97;67.96;99198.09;6214086;23;20028;-72
2023/10/31 10:51:51;;;;;;;3.95;1.40;;;;;;;17.96;67.56;99196.41;6214235;23;20000;-72
2023/10/31 10:54:28;;;;;;;2.47;0.98;;;;;;;17.97;67.46;99206.03;6214221;23;20175;-72
2023/10/31 10:56:58;;;;;;;4.07;1.20;;;;;;;17.99;67.53;99195.38;6213860;23;20016;-72
2023/10/31 10:59:40;;;;;;;2.20;1.08;;;;;;;17.97;67.53;99207.81;6213677;23;20523;-72
2023/10/31 11:02:06;;;;;;;3.28;1.27;;;;;;;17.97;67.53;99203.38;6214162;23;20007;-72
2023/10/31 11:04:33;;;;;;;4.30;1.20;;;;;;;18.00;67.49;99190.97;6214034;23;20012;-72
2023/10/31 11:06:59;;;;;;;5.70;1.40;;;;;;;17.98;67.38;99205.06;6213824;23;20009;-72
2023/10/31 11:09:25;;;;;;;4.45;1.23;;;;;;;18.00;67.56;99190.97;6187714;23;20427;-72
2023/10/31 11:11:52;;;;;;;6.43;1.50;;;;;;;18.02;67.30;99186.44;6214111;23;20443;-72
2023/10/31 11:14:18;;;;;;;3.95;1.10;;;;;;;18.04;67.27;99189.84;6214259;23;20031;-71
2023/10/31 11:16:53;;;;;;;4.20;1.48;;;;;;;18.02;67.26;99181.16;6214037;23;20631;-72
2023/10/31 11:19:24;;;;;;;3.30;1.00;;;;;;;18.02;66.98;99181.16;6214009;23;20019;-72
2023/10/31 11:21:54;;;;;;;4.35;1.48;;;;;;;18.05;66.90;99181.84;6213833;23;20040;-74
2023/10/31 11:24:22;;;;;;;3.38;1.10;;;;;;;18.06;67.13;99180.13;6214110;23;20004;-74
2023/10/31 11:26:52;;;;;;;6.95;1.15;;;;;;;18.04;67.13;99187.22;6214254;23;20048;-74